Time;durP1;ratioP1;P1;durP2;ratioP2;P2;SDS_P1;SDS_P2;PMS_P1;PMS_P2;Temp;Humidity;BMP_temperature;BMP_pressure;BME280_temperature;BME280_humidity;BME280_pressure;Samples;Min_cycle;Max_cycle;Signal;HPM_P1;HPM_P2
2022/03/17 00:00:29;;;;;;;23.58;13.00;;;10.50;88.00;;;;;;5012860;28;20084;-72
2022/03/17 00:02:54;;;;;;;26.75;13.70;;;10.50;87.90;;;;;;5013070;28;20072;-73
2022/03/17 00:05:20;;;;;;;23.67;13.07;;;10.50;88.10;;;;;;5011808;28;20125;-73
2022/03/17 00:07:46;;;;;;;25.95;13.93;;;10.60;88.10;;;;;;5013010;28;20064;-72
2022/03/17 00:10:15;;;;;;;28.10;14.27;;;10.60;88.10;;;;;;5011723;28;20378;-73
2022/03/17 00:12:44;;;;;;;24.48;13.43;;;10.60;88.20;;;;;;5012781;28;20050;-73
2022/03/17 00:15:11;;;;;;;27.45;12.90;;;10.60;88.30;;;;;;5011572;28;20356;-74
2022/03/17 00:17:37;;;;;;;26.98;13.65;;;10.50;88.20;;;;;;5012691;28;20026;-73
2022/03/17 00:20:06;;;;;;;21.63;12.70;;;10.50;88.10;;;;;;5012497;28;20118;-72
2022/03/17 00:22:31;;;;;;;23.90;12.20;;;10.50;88.10;;;;;;5011866;28;20034;-72
2022/03/17 00:24:57;;;;;;;25.40;13.25;;;10.50;88.50;;;;;;5011429;28;20561;-72
2022/03/17 00:27:23;;;;;;;24.50;13.27;;;10.50;88.50;;;;;;5012491;28;20048;-73
2022/03/17 00:29:50;;;;;;;22.45;13.52;;;10.40;88.60;;;;;;5012427;28;20033;-72
2022/03/17 00:32:16;;;;;;;23.97;13.37;;;10.50;88.70;;;;;;5012409;28;20458;-72
2022/03/17 00:37:26;;;;;;;24.50;13.82;;;10.40;88.90;;;;;;5011793;28;20049;-73
2022/03/17 00:39:53;;;;;;;27.73;15.65;;;10.50;88.80;;;;;;5012156;28;20030;-73
2022/03/17 00:42:19;;;;;;;23.60;13.13;;;10.40;89.00;;;;;;5011999;28;20117;-73
2022/03/17 00:44:46;;;;;;;26.48;14.75;;;10.40;88.80;;;;;;5012175;28;20040;-72
2022/03/17 00:47:15;;;;;;;24.90;14.30;;;10.40;88.90;;;;;;5012019;28;20340;-73
2022/03/17 00:49:40;;;;;;;31.10;14.55;;;10.50;89.00;;;;;;5012491;28;20022;-71
2022/03/17 00:52:10;;;;;;;29.40;14.30;;;10.50;89.10;;;;;;5012173;28;20092;-72
2022/03/17 00:54:39;;;;;;;24.15;14.23;;;10.50;89.10;;;;;;5011866;28;20030;-72
2022/03/17 00:57:08;;;;;;;24.65;13.77;;;10.40;89.20;;;;;;5011761;28;20647;-72
2022/03/17 00:59:38;;;;;;;27.52;13.63;;;10.30;89.00;;;;;;5011769;28;20359;-72
2022/03/17 01:02:04;;;;;;;29.80;15.45;;;10.30;89.00;;;;;;5011786;28;20026;-74
2022/03/17 01:04:29;;;;;;;26.35;15.15;;;10.20;89.20;;;;;;5012147;28;20014;-72
2022/03/17 01:06:55;;;;;;;24.80;14.15;;;10.20;89.40;;;;;;5010780;28;20188;-72
2022/03/17 01:09:21;;;;;;;25.27;14.68;;;10.20;89.50;;;;;;5011882;28;20030;-72
2022/03/17 01:11:46;;;;;;;26.33;14.82;;;10.10;89.50;;;;;;5011634;28;20487;-73
2022/03/17 01:14:15;;;;;;;24.88;14.20;;;10.10;89.60;;;;;;5011543;28;20045;-72
2022/03/17 01:16:42;;;;;;;26.20;15.15;;;10.00;90.00;;;;;;5012139;28;20033;-74
2022/03/17 01:19:07;;;;;;;27.45;14.55;;;10.00;90.00;;;;;;5010304;28;20061;-72
2022/03/17 01:21:34;;;;;;;29.80;16.13;;;10.00;90.20;;;;;;5011235;28;20070;-73
2022/03/17 01:24:00;;;;;;;29.08;16.48;;;10.00;90.10;;;;;;5011435;28;20026;-74
2022/03/17 01:26:26;;;;;;;28.35;16.42;;;10.00;90.30;;;;;;5011363;28;20180;-73
2022/03/17 01:28:52;;;;;;;28.38;16.38;;;10.00;90.10;;;;;;5011849;28;20131;-72
2022/03/17 01:31:18;;;;;;;32.58;16.90;;;10.00;90.10;;;;;;5011209;28;20026;-73
2022/03/17 01:34:17;;;;;;;32.55;16.95;;;9.90;90.80;;;;;;5010303;28;20026;-72
2022/03/17 01:36:43;;;;;;;29.23;16.27;;;10.00;90.20;;;;;;4987047;28;20043;-73
2022/03/17 01:39:21;;;;;;;31.27;16.95;;;9.90;90.70;;;;;;4972243;28;20405;-73
2022/03/17 01:41:46;;;;;;;;;;;9.80;90.80;;;;;;4987802;28;20057;-74
2022/03/17 01:44:12;;;;;;;30.75;17.25;;;9.90;91.00;;;;;;4972528;28;19909;-73
2022/03/17 01:49:22;;;;;;;34.42;18.02;;;9.90;90.90;;;;;;4995730;28;20152;-73
2022/03/17 01:51:48;;;;;;;34.13;18.20;;;9.90;90.90;;;;;;4995569;28;20113;-74
2022/03/17 01:54:16;;;;;;;32.00;17.85;;;10.00;90.40;;;;;;4995729;28;20134;-73
2022/03/17 01:56:42;;;;;;;36.83;17.90;;;10.10;90.30;;;;;;4995768;28;20100;-73
2022/03/17 01:59:08;;;;;;;32.55;18.90;;;10.00;90.40;;;;;;4995590;28;20252;-73
2022/03/17 02:01:33;;;;;;;32.72;18.13;;;10.00;90.40;;;;;;4995058;28;20105;-73
2022/03/17 02:03:59;;;;;;;31.00;18.70;;;10.00;90.40;;;;;;4995412;28;20034;-72
2022/03/17 02:06:25;;;;;;;32.88;18.90;;;10.00;90.40;;;;;;4995465;28;20093;-72
2022/03/17 02:08:51;;;;;;;31.88;19.20;;;10.00;90.50;;;;;;4995258;28;20039;-73
2022/03/17 02:14:01;;;;;;;33.15;18.33;;;10.00;90.50;;;;;;4995306;28;20480;-72
2022/03/17 02:16:30;;;;;;;34.05;18.42;;;9.90;91.00;;;;;;4995608;28;20034;-72
2022/03/17 02:18:56;;;;;;;30.63;18.77;;;9.90;91.00;;;;;;4995232;28;20057;-72
2022/03/17 02:21:21;;;;;;;30.50;18.25;;;10.00;90.60;;;;;;4995001;28;20444;-73
2022/03/17 02:26:31;;;;;;;33.17;19.25;;;10.10;90.40;;;;;;4995071;28;20033;-73
2022/03/17 02:28:59;;;;;;;36.75;19.17;;;10.00;90.50;;;;;;4995029;28;20050;-73
2022/03/17 02:31:25;;;;;;;34.83;18.40;;;10.00;90.60;;;;;;4995456;28;20448;-74
2022/03/17 02:33:51;;;;;;;34.10;18.50;;;10.00;90.70;;;;;;4995191;28;20061;-73
2022/03/17 02:36:18;;;;;;;32.33;19.08;;;10.00;90.60;;;;;;5006647;28;20065;-74
2022/03/17 02:38:44;;;;;;;34.22;19.20;;;9.90;91.10;;;;;;5013463;28;20363;-73
2022/03/17 02:41:21;;;;;;;36.38;19.35;;;10.00;90.60;;;;;;5014248;28;20176;-73
2022/03/17 02:43:50;;;;;;;35.17;18.83;;;10.00;90.60;;;;;;5014929;28;20284;-73
2022/03/17 02:46:16;;;;;;;38.33;20.23;;;10.00;90.70;;;;;;5014427;28;20120;-73
2022/03/17 02:48:43;;;;;;;36.45;19.38;;;10.00;90.70;;;;;;5014327;28;20046;-73
2022/03/17 02:51:16;;;;;;;34.00;19.02;;;10.00;90.60;;;;;;5014234;28;20041;-71
2022/03/17 02:53:42;;;;;;;34.53;19.13;;;10.00;90.70;;;;;;5014243;28;20049;-73
2022/03/17 02:56:16;;;;;;;36.78;20.85;;;9.90;91.30;;;;;;5014212;28;20026;-72
2022/03/17 02:58:42;;;;;;;36.80;21.08;;;10.00;90.80;;;;;;5014752;28;20041;-73
2022/03/17 03:01:13;;;;;;;41.50;21.15;;;9.90;91.30;;;;;;5013760;28;20022;-72
2022/03/17 03:03:39;;;;;;;39.20;21.50;;;9.80;91.40;;;;;;5014140;28;20025;-73
2022/03/17 03:06:19;;;;;;;36.42;19.90;;;9.90;91.50;;;;;;5014342;28;20033;-73
2022/03/17 03:08:45;;;;;;;35.38;20.67;;;10.00;91.00;;;;;;5014066;28;20041;-73
2022/03/17 03:11:14;;;;;;;37.65;20.00;;;10.00;90.80;;;;;;5013884;28;20034;-73
2022/03/17 03:13:39;;;;;;;34.38;19.83;;;10.00;90.90;;;;;;5014183;28;20049;-73
2022/03/17 03:16:20;;;;;;;35.45;20.27;;;10.00;90.90;;;;;;5013883;28;20077;-74
2022/03/17 03:18:45;;;;;;;42.08;20.17;;;9.90;91.50;;;;;;5013638;28;20026;-73
2022/03/17 03:21:15;;;;;;;41.63;19.83;;;9.90;91.50;;;;;;5013516;28;20546;-73
2022/03/17 03:23:40;;;;;;;38.13;20.65;;;9.90;91.40;;;;;;5013723;28;20030;-73
2022/03/17 03:26:09;;;;;;;42.97;21.25;;;9.90;91.60;;;;;;5013782;28;20091;-73
2022/03/17 03:28:34;;;;;;;42.72;20.85;;;9.80;91.70;;;;;;5013941;28;20026;-73
2022/03/17 03:31:00;;;;;;;39.35;21.58;;;9.80;91.70;;;;;;5008966;28;20555;-74
2022/03/17 03:33:26;;;;;;;40.72;21.35;;;9.80;91.60;;;;;;4993833;28;20377;-73
2022/03/17 03:38:35;;;;;;;38.28;21.10;;;9.70;91.90;;;;;;4993713;28;20038;-73
2022/03/17 03:41:01;;;;;;;36.22;21.13;;;9.70;92.00;;;;;;4993753;28;20038;-73
2022/03/17 03:43:26;;;;;;;37.03;20.95;;;9.70;91.90;;;;;;4993888;28;20460;-74
2022/03/17 03:45:52;;;;;;;35.60;20.52;;;9.70;92.00;;;;;;4993489;28;20041;-73
2022/03/17 03:48:18;;;;;;;43.97;21.40;;;9.60;92.00;;;;;;4993313;28;20034;-74
2022/03/17 03:50:43;;;;;;;40.08;21.33;;;9.70;92.10;;;;;;4993410;28;20057;-73
2022/03/17 03:53:09;;;;;;;39.95;21.23;;;9.70;91.90;;;;;;4993247;28;20022;-72
2022/03/17 03:55:34;;;;;;;41.58;20.63;;;9.70;92.00;;;;;;4993786;28;20022;-72
2022/03/17 03:58:02;;;;;;;40.95;22.08;;;9.70;92.10;;;;;;4993518;28;20030;-72
2022/03/17 04:02:55;;;;;;;35.47;19.83;;;9.70;92.20;;;;;;4993081;28;20096;-73
2022/03/17 04:05:24;;;;;;;38.15;20.88;;;9.70;92.10;;;;;;4993136;28;20101;-73
2022/03/17 04:07:51;;;;;;;38.50;21.60;;;9.80;92.20;;;;;;4993517;28;20019;-72
2022/03/17 04:10:16;;;;;;;39.40;20.65;;;9.60;92.30;;;;;;4992954;28;20101;-73
2022/03/17 04:12:42;;;;;;;42.55;21.10;;;9.60;92.30;;;;;;4992304;28;20031;-72
2022/03/17 04:15:08;;;;;;;41.33;22.15;;;9.60;92.40;;;;;;4992827;28;20042;-73
2022/03/17 04:17:33;;;;;;;41.83;21.63;;;9.60;92.40;;;;;;4993150;28;20122;-72
2022/03/17 04:19:59;;;;;;;41.72;22.38;;;9.50;92.50;;;;;;4992353;28;20121;-73
2022/03/17 04:22:24;;;;;;;40.33;22.30;;;9.50;92.50;;;;;;4993260;28;20110;-73
2022/03/17 04:24:50;;;;;;;38.55;22.38;;;9.50;92.60;;;;;;4992726;28;20030;-72
2022/03/17 04:27:16;;;;;;;40.33;22.33;;;9.50;92.60;;;;;;4991813;28;20593;-72
2022/03/17 04:29:41;;;;;;;39.55;22.25;;;9.50;92.60;;;;;;4999380;28;20486;-73
2022/03/17 04:32:07;;;;;;;37.28;21.30;;;9.40;92.70;;;;;;5012345;28;20018;-72
2022/03/17 04:34:33;;;;;;;37.70;21.52;;;9.40;92.70;;;;;;5012688;28;20296;-72
2022/03/17 04:36:58;;;;;;;43.05;22.73;;;9.50;92.80;;;;;;5012023;28;20125;-72
2022/03/17 04:39:24;;;;;;;41.30;22.27;;;9.40;92.80;;;;;;5012132;28;20627;-71
2022/03/17 04:41:50;;;;;;;41.65;23.02;;;9.40;92.60;;;;;;5012292;28;20503;-71
2022/03/17 04:44:16;;;;;;;44.67;23.42;;;9.50;92.90;;;;;;5012173;28;20033;-71
2022/03/17 04:46:41;;;;;;;44.03;22.42;;;9.50;92.80;;;;;;5012382;28;20075;-71
2022/03/17 04:49:09;;;;;;;38.38;21.27;;;9.50;92.80;;;;;;5012027;28;20576;-72
2022/03/17 04:51:35;;;;;;;43.80;23.17;;;9.60;92.80;;;;;;5011909;28;20366;-72
2022/03/17 04:54:00;;;;;;;42.58;23.13;;;9.60;92.70;;;;;;5011871;28;20268;-72
2022/03/17 04:56:26;;;;;;;37.70;21.35;;;9.70;92.60;;;;;;5011789;28;20049;-72
2022/03/17 04:58:52;;;;;;;42.55;22.92;;;9.70;92.70;;;;;;5011995;28;20080;-72
2022/03/17 05:01:18;;;;;;;39.90;22.35;;;9.70;92.70;;;;;;5011811;28;20057;-74
2022/03/17 05:03:45;;;;;;;42.90;22.67;;;9.70;92.70;;;;;;5010716;28;20061;-72
2022/03/17 05:06:12;;;;;;;43.22;23.52;;;9.70;92.60;;;;;;5011503;28;20037;-73
2022/03/17 05:08:38;;;;;;;41.03;23.00;;;9.70;92.60;;;;;;5011579;28;20061;-72
2022/03/17 05:11:07;;;;;;;39.00;22.80;;;9.70;92.70;;;;;;5010769;28;20069;-72
2022/03/17 05:13:34;;;;;;;40.72;23.63;;;9.50;92.80;;;;;;5011815;28;20031;-74
2022/03/17 05:16:00;;;;;;;44.90;23.60;;;9.50;93.00;;;;;;5011398;28;20065;-73
2022/03/17 05:18:26;;;;;;;43.20;23.35;;;9.50;93.00;;;;;;5011483;28;20475;-73
2022/03/17 05:20:52;;;;;;;40.78;22.40;;;9.40;93.10;;;;;;5011261;28;20391;-73
2022/03/17 05:23:19;;;;;;;43.80;23.92;;;9.50;93.10;;;;;;5011142;28;20022;-74
2022/03/17 05:25:47;;;;;;;47.40;23.73;;;9.50;93.20;;;;;;5011511;28;20041;-73
2022/03/17 05:28:13;;;;;;;41.08;24.00;;;9.50;93.10;;;;;;5011276;28;20859;-73
2022/03/17 05:30:40;;;;;;;44.40;23.85;;;9.50;93.00;;;;;;5011223;28;20128;-73
2022/03/17 05:33:11;;;;;;;37.90;21.27;;;9.50;93.10;;;;;;5011265;28;20044;-72
2022/03/17 05:35:40;;;;;;;45.15;23.38;;;9.40;93.10;;;;;;5011174;28;20041;-73
2022/03/17 05:38:07;;;;;;;41.13;22.65;;;9.50;93.10;;;;;;5011257;28;20037;-75
2022/03/17 05:40:33;;;;;;;40.03;23.45;;;9.50;93.10;;;;;;5011597;28;20363;-75
2022/03/17 05:43:00;;;;;;;44.55;23.77;;;9.50;93.30;;;;;;5006893;28;20035;-74
2022/03/17 05:45:28;;;;;;;43.95;23.83;;;9.50;93.20;;;;;;4991817;28;20119;-75
2022/03/17 05:47:56;;;;;;;47.65;24.45;;;9.60;93.00;;;;;;4991540;28;20427;-76
2022/03/17 05:50:26;;;;;;;41.45;22.08;;;9.60;93.20;;;;;;4991436;28;20184;-76
2022/03/17 05:52:52;;;;;;;44.05;23.55;;;9.50;93.10;;;;;;4991723;28;20054;-74
2022/03/17 05:55:19;;;;;;;40.97;23.58;;;9.50;93.00;;;;;;4991309;28;20486;-75
2022/03/17 05:57:47;;;;;;;42.55;23.42;;;9.60;93.00;;;;;;4991373;28;20197;-74
2022/03/17 06:00:16;;;;;;;43.17;23.35;;;9.60;93.00;;;;;;4991362;28;20034;-73
2022/03/17 06:02:42;;;;;;;44.05;23.13;;;9.50;93.20;;;;;;4997988;28;20510;-75
2022/03/17 06:05:09;;;;;;;42.05;23.92;;;9.60;93.10;;;;;;5010969;28;20026;-72
2022/03/17 06:07:36;;;;;;;41.13;23.92;;;9.60;93.20;;;;;;5011484;28;20355;-76
2022/03/17 06:10:03;;;;;;;44.42;23.92;;;9.60;93.10;;;;;;5010002;28;20036;-75
2022/03/17 06:12:30;;;;;;;47.00;24.15;;;9.60;93.20;;;;;;5009853;28;20452;-75
2022/03/17 06:14:57;;;;;;;45.30;24.43;;;9.60;93.20;;;;;;5010867;28;20044;-73
2022/03/17 06:17:23;;;;;;;46.85;26.65;;;9.60;93.20;;;;;;5010900;28;20034;-73
2022/03/17 06:19:48;;;;;;;46.53;25.70;;;9.70;93.10;;;;;;5009817;28;20076;-74
2022/03/17 06:22:14;;;;;;;53.58;27.92;;;9.70;93.20;;;;;;5006143;28;20031;-75
2022/03/17 06:24:40;;;;;;;53.70;29.58;;;9.70;93.10;;;;;;4989798;28;20054;-74
2022/03/17 06:27:05;;;;;;;45.67;27.25;;;9.70;93.10;;;;;;4990955;28;20476;-74
2022/03/17 06:29:31;;;;;;;48.28;26.23;;;9.70;93.00;;;;;;4990405;28;20123;-73
2022/03/17 06:31:57;;;;;;;41.78;24.02;;;9.80;93.10;;;;;;4991138;28;20026;-74
2022/03/17 06:34:22;;;;;;;41.28;24.83;;;9.80;93.00;;;;;;5007747;28;20092;-74
2022/03/17 06:36:48;;;;;;;43.33;23.80;;;9.80;93.00;;;;;;4994642;28;20043;-73
2022/03/17 06:39:13;;;;;;;46.28;25.92;;;9.90;93.00;;;;;;4993671;28;20089;-75
2022/03/17 06:41:39;;;;;;;49.13;26.80;;;9.80;93.10;;;;;;4994897;28;20030;-74
2022/03/17 06:44:05;;;;;;;40.60;24.05;;;9.90;93.20;;;;;;4994888;28;20279;-74
2022/03/17 06:46:30;;;;;;;47.08;24.27;;;9.90;93.20;;;;;;4995208;28;20037;-74
2022/03/17 06:48:56;;;;;;;43.50;24.45;;;9.90;93.10;;;;;;4994609;28;20045;-73
2022/03/17 06:51:22;;;;;;;44.25;23.90;;;10.00;92.60;;;;;;4993643;28;20030;-73
2022/03/17 06:53:47;;;;;;;42.78;24.38;;;10.00;92.50;;;;;;4993477;28;20045;-74
2022/03/17 06:56:13;;;;;;;40.03;22.95;;;10.00;92.50;;;;;;5009595;28;20045;-75
2022/03/17 06:58:39;;;;;;;43.65;24.33;;;10.00;92.30;;;;;;4993898;28;20034;-74
2022/03/17 07:01:05;;;;;;;45.42;24.52;;;10.10;92.20;;;;;;4994496;28;20169;-73
2022/03/17 07:03:30;;;;;;;52.90;24.08;;;10.20;92.20;;;;;;4994225;28;20026;-72
2022/03/17 07:05:56;;;;;;;40.45;22.52;;;10.20;92.00;;;;;;4994055;28;20070;-75
2022/03/17 07:08:21;;;;;;;42.10;23.65;;;10.30;92.10;;;;;;4994242;28;20045;-73
2022/03/17 07:10:47;;;;;;;46.17;23.48;;;10.40;91.90;;;;;;5009888;28;20432;-73
2022/03/17 07:13:13;;;;;;;42.10;23.83;;;10.40;91.80;;;;;;4994204;28;20030;-74
2022/03/17 07:15:39;;;;;;;43.92;24.10;;;10.50;91.70;;;;;;4994009;28;20026;-74
2022/03/17 07:18:05;;;;;;;40.13;23.42;;;10.60;91.40;;;;;;5003251;28;20482;-74
2022/03/17 07:20:30;;;;;;;40.80;23.33;;;10.60;90.90;;;;;;5013105;28;20046;-73
2022/03/17 07:22:56;;;;;;;45.03;24.17;;;10.70;90.60;;;;;;5013336;28;20026;-70
2022/03/17 07:25:24;;;;;;;40.88;22.60;;;10.80;90.30;;;;;;5013627;28;20037;-70
2022/03/17 07:27:49;;;;;;;38.97;23.08;;;10.90;90.20;;;;;;5013284;28;20494;-73
2022/03/17 07:30:18;;;;;;;40.33;23.00;;;10.90;90.00;;;;;;5028496;28;20034;-72
2022/03/17 07:32:49;;;;;;;42.38;24.00;;;11.00;89.80;;;;;;5013168;28;20038;-72
2022/03/17 07:35:15;;;;;;;38.33;22.95;;;11.00;89.70;;;;;;5012920;28;20064;-72
2022/03/17 07:37:41;;;;;;;37.75;21.92;;;11.00;89.30;;;;;;5013394;28;20475;-72
2022/03/17 07:40:08;;;;;;;41.08;24.35;;;11.10;89.10;;;;;;5012769;28;20038;-72
2022/03/17 07:42:35;;;;;;;41.80;24.55;;;11.10;89.10;;;;;;5008553;28;20037;-71
2022/03/17 07:45:01;;;;;;;37.25;22.73;;;11.10;88.70;;;;;;5002296;28;20056;-71
2022/03/17 07:47:26;;;;;;;37.33;22.58;;;11.20;88.70;;;;;;5012805;28;20368;-71
2022/03/17 07:49:52;;;;;;;40.72;22.55;;;11.20;88.40;;;;;;5028509;28;20018;-72
2022/03/17 07:52:18;;;;;;;41.53;23.33;;;11.20;88.40;;;;;;5013165;28;20121;-70
2022/03/17 07:54:45;;;;;;;36.72;22.75;;;11.30;88.50;;;;;;5012603;28;20034;-71
2022/03/17 07:57:12;;;;;;;38.33;22.67;;;11.20;88.00;;;;;;5012570;28;20057;-69
2022/03/17 07:59:38;;;;;;;37.72;22.15;;;11.30;88.40;;;;;;5007969;28;20038;-70
2022/03/17 08:02:04;;;;;;;40.92;23.02;;;11.30;88.10;;;;;;4993377;28;20034;-70
2022/03/17 08:04:30;;;;;;;43.97;22.88;;;11.30;87.90;;;;;;5012918;28;20022;-69
2022/03/17 08:06:57;;;;;;;42.17;24.02;;;11.30;88.10;;;;;;5008226;28;20034;-69
2022/03/17 08:09:24;;;;;;;42.70;22.85;;;11.30;88.30;;;;;;5004900;28;20030;-69
2022/03/17 08:11:50;;;;;;;38.55;22.63;;;11.30;88.30;;;;;;5012303;28;20069;-68
2022/03/17 08:14:16;;;;;;;37.55;21.90;;;11.30;88.60;;;;;;5012950;28;20045;-72
2022/03/17 08:16:43;;;;;;;42.92;25.10;;;11.30;88.50;;;;;;5013772;28;20026;-73
2022/03/17 08:19:12;;;;;;;37.75;22.58;;;11.30;88.50;;;;;;5028728;28;20033;-74
2022/03/17 08:21:39;;;;;;;39.85;23.83;;;11.30;88.30;;;;;;5012763;28;20376;-71
2022/03/17 08:24:07;;;;;;;42.47;24.15;;;11.40;88.50;;;;;;5013469;28;20030;-72
2022/03/17 08:26:34;;;;;;;40.38;23.42;;;11.40;88.40;;;;;;5013325;28;20480;-73
2022/03/17 08:29:00;;;;;;;40.78;23.60;;;11.40;88.30;;;;;;5012353;28;20026;-71
2022/03/17 08:31:27;;;;;;;35.75;21.83;;;11.40;88.00;;;;;;5013317;28;20113;-71
2022/03/17 08:33:56;;;;;;;42.20;23.50;;;11.40;88.00;;;;;;5012894;28;20026;-71
2022/03/17 08:36:29;;;;;;;41.92;23.70;;;11.40;88.10;;;;;;5012652;28;20380;-73
2022/03/17 08:38:55;;;;;;;39.42;22.40;;;11.40;88.10;;;;;;5012619;28;20037;-72
2022/03/17 08:41:27;;;;;;;41.40;23.52;;;11.40;88.10;;;;;;5012441;28;20393;-71
2022/03/17 08:43:52;;;;;;;41.45;23.92;;;11.40;88.20;;;;;;5013099;28;20026;-70
2022/03/17 08:49:19;;;;;;;41.30;23.50;;;11.50;88.60;;;;;;5012296;28;20077;-73
2022/03/17 08:51:47;;;;;;;41.47;24.42;;;11.40;89.20;;;;;;5011916;28;20029;-74
2022/03/17 08:54:13;;;;;;;38.83;23.65;;;11.40;90.10;;;;;;5027082;28;20538;-73
2022/03/17 08:56:38;;;;;;;45.85;23.85;;;11.40;90.50;;;;;;5012016;28;20053;-75
2022/03/17 08:59:05;;;;;;;43.15;23.05;;;11.40;90.70;;;;;;5026513;28;20040;-72
2022/03/17 09:01:44;;;;;;;44.17;25.15;;;11.50;90.80;;;;;;5027517;28;20117;-72
2022/03/17 09:04:11;;;;;;;39.83;23.95;;;11.40;90.80;;;;;;5011403;28;20073;-73
2022/03/17 09:06:38;;;;;;;41.20;23.92;;;11.40;90.90;;;;;;5011312;28;20066;-72
2022/03/17 09:09:04;;;;;;;41.53;24.02;;;11.40;90.70;;;;;;5027432;28;20030;-74
2022/03/17 09:11:30;;;;;;;42.92;23.85;;;11.40;90.70;;;;;;5013147;28;20030;-73
2022/03/17 09:13:58;;;;;;;41.40;23.40;;;11.40;90.80;;;;;;5013000;28;20455;-73
2022/03/17 09:16:29;;;;;;;44.10;24.23;;;11.50;90.80;;;;;;5013293;28;20022;-71
2022/03/17 09:18:56;;;;;;;43.20;23.83;;;11.50;90.90;;;;;;5028037;28;20034;-74
2022/03/17 09:21:27;;;;;;;44.40;24.23;;;11.50;90.90;;;;;;5027313;28;20545;-74
2022/03/17 09:23:53;;;;;;;40.22;24.40;;;11.50;91.00;;;;;;5026771;28;20030;-74
2022/03/17 09:26:28;;;;;;;41.83;24.25;;;11.50;91.30;;;;;;5026389;28;20092;-73
2022/03/17 09:28:53;;;;;;;45.05;24.00;;;11.50;91.50;;;;;;5011182;28;20105;-73
2022/03/17 09:31:19;;;;;;;40.92;24.88;;;11.50;91.60;;;;;;5026934;28;20121;-72
2022/03/17 09:33:45;;;;;;;44.88;26.55;;;11.60;92.00;;;;;;5010870;28;20483;-73
2022/03/17 09:36:20;;;;;;;46.70;26.85;;;11.50;92.00;;;;;;5007082;28;20034;-75
2022/03/17 09:39:39;;;;;;;39.22;23.92;;;11.60;92.20;;;;;;5000478;28;20046;-73
2022/03/17 09:41:33;;;;;;;40.42;25.45;;;11.60;92.70;;;;;;5012035;28;20293;-72
2022/03/17 09:43:59;;;;;;;41.67;23.37;;;11.50;93.00;;;;;;5011394;28;20014;-74
2022/03/17 09:46:31;;;;;;;44.72;26.27;;;11.50;93.00;;;;;;5027650;28;20640;-72
2022/03/17 09:48:58;;;;;;;40.08;25.42;;;11.50;93.60;;;;;;5012441;28;20364;-73
2022/03/17 09:51:29;;;;;;;38.80;24.42;;;11.50;93.60;;;;;;5012526;28;20033;-73
2022/03/17 09:54:00;;;;;;;45.55;25.70;;;11.60;94.10;;;;;;5011353;28;20076;-74
2022/03/17 09:56:26;;;;;;;45.28;26.05;;;11.60;94.20;;;;;;5010690;28;20466;-73
2022/03/17 09:58:53;;;;;;;43.60;25.13;;;11.60;94.30;;;;;;5011287;28;20092;-75
2022/03/17 10:01:31;;;;;;;54.08;31.00;;;11.60;94.30;;;;;;5011067;28;20042;-75
2022/03/17 10:03:59;;;;;;;49.20;28.58;;;11.60;94.80;;;;;;5011548;28;20037;-72
2022/03/17 10:06:25;;;;;;;43.90;26.38;;;11.50;95.10;;;;;;5026396;28;20026;-73
2022/03/17 10:08:51;;;;;;;44.05;26.38;;;11.50;95.10;;;;;;5011487;28;20040;-75
2022/03/17 10:11:31;;;;;;;47.22;26.83;;;11.50;95.50;;;;;;5017065;28;20029;-73
2022/03/17 10:13:59;;;;;;;45.28;26.92;;;11.60;95.40;;;;;;5015894;28;20025;-74
2022/03/17 10:16:36;;;;;;;50.47;28.30;;;11.60;95.40;;;;;;5016788;28;20058;-74
2022/03/17 10:19:07;;;;;;;44.70;27.53;;;11.60;95.60;;;;;;5014436;28;20037;-74
2022/03/17 10:21:34;;;;;;;45.17;27.75;;;11.60;95.80;;;;;;5015066;28;20471;-72
2022/03/17 10:24:08;;;;;;;45.72;26.10;;;11.50;95.80;;;;;;5014650;28;20034;-73
2022/03/17 10:26:49;;;;;;;44.58;27.10;;;11.60;95.80;;;;;;5015456;28;20061;-74
2022/03/17 10:29:26;;;;;;;47.60;28.10;;;11.60;95.90;;;;;;5014763;28;20026;-73
2022/03/17 10:32:11;;;;;;;47.55;27.80;;;11.60;96.20;;;;;;5015510;28;20022;-74
2022/03/17 10:34:48;;;;;;;46.50;28.00;;;11.60;96.40;;;;;;5015640;28;20483;-73
2022/03/17 10:37:17;;;;;;;50.80;28.65;;;11.60;96.70;;;;;;5014722;28;20137;-72
2022/03/17 10:39:45;;;;;;;52.15;28.90;;;11.50;96.80;;;;;;5015264;28;20034;-74
2022/03/17 10:42:14;;;;;;;49.78;28.85;;;11.60;96.90;;;;;;5015811;28;20037;-77
2022/03/17 10:44:41;;;;;;;50.55;29.85;;;11.60;97.10;;;;;;5015591;28;20042;-74
2022/03/17 10:47:07;;;;;;;49.40;29.60;;;11.70;97.20;;;;;;5030447;28;20498;-74
2022/03/17 10:49:33;;;;;;;45.90;26.48;;;11.60;97.60;;;;;;5014898;28;20028;-73
2022/03/17 10:51:59;;;;;;;31.92;17.50;;;11.60;98.00;;;;;;5014711;28;20038;-72
2022/03/17 10:54:25;;;;;;;23.20;13.10;;;11.30;98.40;;;;;;5014528;28;20041;-74
2022/03/17 10:57:11;;;;;;;18.27;10.27;;;10.90;98.60;;;;;;5014289;28;20034;-74
2022/03/17 10:59:44;;;;;;;16.40;9.43;;;10.90;98.90;;;;;;5015105;28;20052;-74
2022/03/17 11:02:18;;;;;;;12.82;8.20;;;10.80;99.20;;;;;;5014043;28;20037;-74
2022/03/17 11:04:45;;;;;;;16.70;8.07;;;10.70;99.30;;;;;;5015214;28;20037;-73
2022/03/17 11:07:15;;;;;;;14.55;7.65;;;10.80;99.40;;;;;;5029581;28;20113;-74
2022/03/17 11:09:42;;;;;;;12.82;6.90;;;10.80;99.30;;;;;;5013921;28;20030;-74
2022/03/17 11:12:10;;;;;;;13.05;6.57;;;10.70;99.30;;;;;;5013679;28;20034;-73
2022/03/17 11:14:42;;;;;;;10.05;5.97;;;10.70;99.30;;;;;;5013705;28;20115;-75
2022/03/17 11:17:12;;;;;;;13.55;6.32;;;10.80;99.10;;;;;;5013649;28;20064;-75
2022/03/17 11:19:42;;;;;;;13.63;6.40;;;10.70;99.50;;;;;;5029168;28;20399;-76
2022/03/17 11:22:10;;;;;;;12.85;6.30;;;10.70;99.50;;;;;;5013285;28;20168;-75
2022/03/17 11:24:38;;;;;;;8.53;5.90;;;10.70;99.50;;;;;;5013563;28;20034;-75
2022/03/17 11:27:12;;;;;;;16.40;6.40;;;10.80;99.30;;;;;;5028761;28;20266;-75
2022/03/17 11:29:40;;;;;;;9.73;6.30;;;10.90;99.30;;;;;;5013502;28;20455;-73
2022/03/17 11:32:09;;;;;;;13.50;6.28;;;10.90;99.30;;;;;;5013439;28;20084;-71
2022/03/17 11:34:38;;;;;;;14.40;6.43;;;10.80;99.70;;;;;;5029193;28;20029;-70
2022/03/17 11:37:18;;;;;;;13.13;6.22;;;10.80;99.60;;;;;;5013132;28;20515;-72
2022/03/17 11:39:56;;;;;;;16.55;7.55;;;10.80;99.50;;;;;;5013226;28;20165;-70
2022/03/17 11:42:35;;;;;;;16.08;6.53;;;10.90;99.40;;;;;;5013277;28;20026;-70
2022/03/17 11:45:13;;;;;;;12.57;6.32;;;11.00;99.40;;;;;;5013356;28;20030;-72
2022/03/17 11:47:48;;;;;;;10.15;6.28;;;10.80;99.50;;;;;;5028379;28;20087;-70
2022/03/17 11:50:32;;;;;;;17.05;6.45;;;10.80;99.50;;;;;;5012983;28;20251;-71
2022/03/17 11:53:02;;;;;;;24.90;6.28;;;10.90;99.40;;;;;;5029033;28;20068;-71
2022/03/17 11:55:53;;;;;;;11.95;6.50;;;10.90;99.40;;;;;;5012200;28;20030;-75
2022/03/17 11:58:42;;;;;;;13.80;6.13;;;10.80;99.30;;;;;;5012951;28;20042;-73
2022/03/17 12:01:34;;;;;;;11.82;5.80;;;10.80;99.40;;;;;;5008372;28;20460;-74
2022/03/17 12:04:04;;;;;;;12.20;5.80;;;10.90;99.20;;;;;;5010178;28;20534;-72
2022/03/17 12:06:37;;;;;;;11.63;6.13;;;11.00;99.10;;;;;;5008430;28;20030;-76
2022/03/17 12:09:09;;;;;;;15.00;5.47;;;10.90;99.10;;;;;;5002328;28;20108;-72
2022/03/17 12:11:36;;;;;;;17.23;6.03;;;10.90;99.10;;;;;;5028276;28;20467;-74
2022/03/17 12:14:24;;;;;;;10.98;6.32;;;10.90;98.90;;;;;;5029393;28;20651;-75
2022/03/17 12:16:55;;;;;;;13.77;5.90;;;10.90;98.80;;;;;;5014120;28;20030;-75
2022/03/17 12:19:48;;;;;;;10.15;5.75;;;10.90;98.90;;;;;;5028187;28;20534;-74
2022/03/17 12:22:16;;;;;;;13.52;5.88;;;11.10;98.90;;;;;;5012829;28;20041;-75
2022/03/17 12:24:51;;;;;;;13.10;6.30;;;11.10;98.80;;;;;;5012598;28;20030;-74
2022/03/17 12:27:31;;;;;;;17.98;6.78;;;10.90;98.90;;;;;;5029127;28;20172;-73
2022/03/17 12:30:02;;;;;;;14.40;5.88;;;11.10;99.00;;;;;;5012391;28;20215;-75
2022/03/17 12:32:38;;;;;;;12.02;4.82;;;11.30;98.60;;;;;;5026541;28;20030;-74
2022/03/17 12:35:05;;;;;;;9.65;4.43;;;11.10;98.30;;;;;;5012154;28;20025;-74
2022/03/17 12:37:33;;;;;;;15.40;6.68;;;11.10;98.30;;;;;;5012452;28;20029;-74
2022/03/17 12:40:05;;;;;;;14.55;6.22;;;11.10;98.30;;;;;;5007923;28;20471;-72
2022/03/17 12:42:37;;;;;;;10.75;5.60;;;11.10;98.40;;;;;;5005677;28;20471;-74
2022/03/17 12:45:14;;;;;;;11.30;4.72;;;11.20;98.30;;;;;;5011996;28;20243;-73
2022/03/17 12:47:42;;;;;;;11.98;4.28;;;11.10;98.10;;;;;;5011958;28;20065;-73
2022/03/17 12:50:18;;;;;;;6.70;3.20;;;11.10;98.00;;;;;;5011858;28;20028;-73
2022/03/17 12:52:47;;;;;;;7.03;3.28;;;11.00;97.80;;;;;;5012476;28;20014;-72
2022/03/17 12:55:14;;;;;;;12.50;3.30;;;11.00;97.80;;;;;;5011727;28;20030;-73
2022/03/17 12:57:41;;;;;;;11.57;3.58;;;11.10;97.90;;;;;;5011793;28;20026;-72